King And Queen Court Hous, Virginia
Current Conditions -  °F | °C
As of 2:35 PM on Friday 31 Oct 2014 (Local Time) from KXSA Reporting Station
Overcast Overcast  
Wind Chill: 57°   Ceiling: 4900
Heat Index: 57°   Visibility: 10mi
Dew Point: 32°   Wind: 6mph
Humidity: 39%   Direction: 10°N
Pressure: 29.88"   Gusts: NA
Location:  37.7018°N, 76.9162°W
Report Text: KXSA 311835Z AUTO 01005KT 10SM OVC049 14/00 A2988 RMK AO2 T01400001
Loading
Personal Weather Stations






























Interactive Weather Map
Tropical Storm Tracking
New forecast layout! Learn more

10-Day Weather Forecast

Advertisements
Track Severe Weather on mobile